sensor_id;sensor_type;location;lat;lon;timestamp;P1;durP1;ratioP1;P2;durP2;ratioP2
84301;SDS011;74468;52.218;6.896;2023-12-22T00:02:22;5.25;;;1.98;;
84301;SDS011;74468;52.218;6.896;2023-12-22T00:04:51;3.17;;;1.42;;
84301;SDS011;74468;52.218;6.896;2023-12-22T00:07:16;5.05;;;1.48;;
84301;SDS011;74468;52.218;6.896;2023-12-22T00:09:41;5.00;;;1.65;;
84301;SDS011;74468;52.218;6.896;2023-12-22T00:12:07;5.93;;;1.85;;
84301;SDS011;74468;52.218;6.896;2023-12-22T00:14:32;4.78;;;1.40;;
84301;SDS011;74468;52.218;6.896;2023-12-22T00:16:57;4.53;;;1.55;;
84301;SDS011;74468;52.218;6.896;2023-12-22T00:19:23;3.58;;;1.40;;
84301;SDS011;74468;52.218;6.896;2023-12-22T00:21:48;3.88;;;1.40;;
84301;SDS011;74468;52.218;6.896;2023-12-22T00:24:14;2.75;;;1.25;;
84301;SDS011;74468;52.218;6.896;2023-12-22T00:26:39;4.65;;;1.60;;
84301;SDS011;74468;52.218;6.896;2023-12-22T00:29:04;4.45;;;1.48;;
84301;SDS011;74468;52.218;6.896;2023-12-22T00:31:30;3.65;;;1.33;;
84301;SDS011;74468;52.218;6.896;2023-12-22T00:33:55;3.90;;;1.90;;
84301;SDS011;74468;52.218;6.896;2023-12-22T00:36:20;4.63;;;1.55;;
84301;SDS011;74468;52.218;6.896;2023-12-22T00:38:49;5.45;;;1.65;;
84301;SDS011;74468;52.218;6.896;2023-12-22T00:41:14;4.63;;;1.58;;
84301;SDS011;74468;52.218;6.896;2023-12-22T00:43:40;3.78;;;1.75;;
84301;SDS011;74468;52.218;6.896;2023-12-22T00:46:05;4.93;;;1.58;;
84301;SDS011;74468;52.218;6.896;2023-12-22T00:48:31;4.40;;;1.60;;
84301;SDS011;74468;52.218;6.896;2023-12-22T00:50:56;3.35;;;1.48;;
84301;SDS011;74468;52.218;6.896;2023-12-22T00:53:21;4.32;;;2.15;;
84301;SDS011;74468;52.218;6.896;2023-12-22T00:55:47;4.57;;;1.58;;
84301;SDS011;74468;52.218;6.896;2023-12-22T00:58:12;2.08;;;1.60;;
84301;SDS011;74468;52.218;6.896;2023-12-22T01:00:37;3.33;;;1.65;;
84301;SDS011;74468;52.218;6.896;2023-12-22T01:03:03;1.90;;;1.20;;
84301;SDS011;74468;52.218;6.896;2023-12-22T01:05:28;3.83;;;1.50;;
84301;SDS011;74468;52.218;6.896;2023-12-22T01:07:54;3.88;;;1.23;;
84301;SDS011;74468;52.218;6.896;2023-12-22T01:10:19;4.25;;;1.50;;
84301;SDS011;74468;52.218;6.896;2023-12-22T01:12:44;5.70;;;1.50;;
84301;SDS011;74468;52.218;6.896;2023-12-22T01:15:10;4.20;;;1.58;;
84301;SDS011;74468;52.218;6.896;2023-12-22T01:17:35;3.38;;;1.50;;
84301;SDS011;74468;52.218;6.896;2023-12-22T01:20:00;3.08;;;1.42;;
84301;SDS011;74468;52.218;6.896;2023-12-22T01:22:26;3.78;;;1.50;;
84301;SDS011;74468;52.218;6.896;2023-12-22T01:24:51;4.13;;;1.70;;
84301;SDS011;74468;52.218;6.896;2023-12-22T01:27:16;2.33;;;1.20;;
84301;SDS011;74468;52.218;6.896;2023-12-22T01:29:42;3.25;;;1.45;;
84301;SDS011;74468;52.218;6.896;2023-12-22T01:32:07;3.55;;;1.25;;
84301;SDS011;74468;52.218;6.896;2023-12-22T01:34:32;3.03;;;1.30;;
84301;SDS011;74468;52.218;6.896;2023-12-22T01:36:58;4.45;;;1.30;;
84301;SDS011;74468;52.218;6.896;2023-12-22T01:39:23;4.38;;;1.65;;
84301;SDS011;74468;52.218;6.896;2023-12-22T01:41:48;5.45;;;1.17;;
84301;SDS011;74468;52.218;6.896;2023-12-22T01:44:14;2.70;;;1.40;;
84301;SDS011;74468;52.218;6.896;2023-12-22T01:46:39;4.40;;;1.60;;
84301;SDS011;74468;52.218;6.896;2023-12-22T01:49:04;4.72;;;1.50;;
84301;SDS011;74468;52.218;6.896;2023-12-22T01:51:31;3.05;;;1.10;;
84301;SDS011;74468;52.218;6.896;2023-12-22T01:53:57;2.28;;;1.20;;
84301;SDS011;74468;52.218;6.896;2023-12-22T01:56:23;3.70;;;1.65;;
84301;SDS011;74468;52.218;6.896;2023-12-22T01:58:49;3.25;;;1.27;;
84301;SDS011;74468;52.218;6.896;2023-12-22T02:01:16;3.65;;;1.27;;
84301;SDS011;74468;52.218;6.896;2023-12-22T02:03:41;5.13;;;1.38;;
84301;SDS011;74468;52.218;6.896;2023-12-22T02:06:07;2.15;;;1.15;;
84301;SDS011;74468;52.218;6.896;2023-12-22T02:08:32;5.13;;;2.33;;
84301;SDS011;74468;52.218;6.896;2023-12-22T02:11:00;2.90;;;1.23;;
84301;SDS011;74468;52.218;6.896;2023-12-22T02:13:26;4.18;;;1.50;;
84301;SDS011;74468;52.218;6.896;2023-12-22T02:15:54;4.13;;;1.75;;
84301;SDS011;74468;52.218;6.896;2023-12-22T02:18:23;2.88;;;1.27;;
84301;SDS011;74468;52.218;6.896;2023-12-22T02:20:50;3.05;;;1.17;;
84301;SDS011;74468;52.218;6.896;2023-12-22T02:23:15;3.60;;;1.50;;
84301;SDS011;74468;52.218;6.896;2023-12-22T02:25:41;3.10;;;1.30;;
84301;SDS011;74468;52.218;6.896;2023-12-22T02:28:09;3.88;;;1.40;;
84301;SDS011;74468;52.218;6.896;2023-12-22T02:30:43;2.70;;;1.00;;
84301;SDS011;74468;52.218;6.896;2023-12-22T02:33:15;3.50;;;1.23;;
84301;SDS011;74468;52.218;6.896;2023-12-22T02:35:41;4.43;;;1.23;;
84301;SDS011;74468;52.218;6.896;2023-12-22T02:38:07;4.90;;;1.88;;
84301;SDS011;74468;52.218;6.896;2023-12-22T02:40:33;3.28;;;1.10;;
84301;SDS011;74468;52.218;6.896;2023-12-22T02:42:59;2.25;;;1.30;;
84301;SDS011;74468;52.218;6.896;2023-12-22T02:45:26;3.22;;;1.15;;
84301;SDS011;74468;52.218;6.896;2023-12-22T02:47:52;3.20;;;1.25;;
84301;SDS011;74468;52.218;6.896;2023-12-22T02:50:17;2.85;;;1.20;;
84301;SDS011;74468;52.218;6.896;2023-12-22T02:52:43;1.85;;;1.00;;
84301;SDS011;74468;52.218;6.896;2023-12-22T02:55:08;5.38;;;1.55;;
84301;SDS011;74468;52.218;6.896;2023-12-22T02:57:34;3.25;;;1.60;;
84301;SDS011;74468;52.218;6.896;2023-12-22T02:59:59;3.70;;;1.23;;
84301;SDS011;74468;52.218;6.896;2023-12-22T03:02:25;2.90;;;1.20;;
84301;SDS011;74468;52.218;6.896;2023-12-22T03:04:50;3.42;;;1.30;;
84301;SDS011;74468;52.218;6.896;2023-12-22T03:07:16;5.35;;;1.52;;
84301;SDS011;74468;52.218;6.896;2023-12-22T03:09:41;3.55;;;1.13;;
84301;SDS011;74468;52.218;6.896;2023-12-22T03:12:07;3.45;;;1.30;;
84301;SDS011;74468;52.218;6.896;2023-12-22T03:14:33;2.60;;;1.00;;
84301;SDS011;74468;52.218;6.896;2023-12-22T03:16:59;3.83;;;1.40;;
84301;SDS011;74468;52.218;6.896;2023-12-22T03:19:25;4.40;;;1.45;;
84301;SDS011;74468;52.218;6.896;2023-12-22T03:21:50;4.82;;;1.30;;
84301;SDS011;74468;52.218;6.896;2023-12-22T03:24:15;3.08;;;1.42;;
84301;SDS011;74468;52.218;6.896;2023-12-22T03:26:41;1.60;;;1.00;;
84301;SDS011;74468;52.218;6.896;2023-12-22T03:29:06;3.63;;;1.00;;
84301;SDS011;74468;52.218;6.896;2023-12-22T03:31:31;3.20;;;1.23;;
84301;SDS011;74468;52.218;6.896;2023-12-22T03:33:57;3.67;;;1.85;;
84301;SDS011;74468;52.218;6.896;2023-12-22T03:36:22;3.55;;;1.00;;
84301;SDS011;74468;52.218;6.896;2023-12-22T03:38:48;2.70;;;0.90;;
84301;SDS011;74468;52.218;6.896;2023-12-22T03:41:13;2.92;;;1.10;;
84301;SDS011;74468;52.218;6.896;2023-12-22T03:43:38;1.73;;;0.90;;
84301;SDS011;74468;52.218;6.896;2023-12-22T03:46:04;2.63;;;1.05;;
84301;SDS011;74468;52.218;6.896;2023-12-22T03:48:29;2.28;;;1.00;;
84301;SDS011;74468;52.218;6.896;2023-12-22T03:50:54;1.45;;;0.93;;
84301;SDS011;74468;52.218;6.896;2023-12-22T03:53:20;4.00;;;1.10;;
84301;SDS011;74468;52.218;6.896;2023-12-22T03:55:45;3.20;;;1.08;;
84301;SDS011;74468;52.218;6.896;2023-12-22T03:58:10;1.85;;;0.70;;
84301;SDS011;74468;52.218;6.896;2023-12-22T04:00:36;3.17;;;0.90;;
84301;SDS011;74468;52.218;6.896;2023-12-22T04:03:01;2.50;;;0.85;;
84301;SDS011;74468;52.218;6.896;2023-12-22T04:05:27;3.72;;;1.50;;
84301;SDS011;74468;52.218;6.896;2023-12-22T04:07:53;2.17;;;0.90;;
84301;SDS011;74468;52.218;6.896;2023-12-22T04:10:18;3.30;;;1.20;;
84301;SDS011;74468;52.218;6.896;2023-12-22T04:12:44;2.72;;;1.10;;
84301;SDS011;74468;52.218;6.896;2023-12-22T04:15:09;3.22;;;1.05;;
84301;SDS011;74468;52.218;6.896;2023-12-22T04:17:35;3.67;;;1.30;;
84301;SDS011;74468;52.218;6.896;2023-12-22T04:20:00;1.50;;;0.90;;
84301;SDS011;74468;52.218;6.896;2023-12-22T04:22:26;2.47;;;1.38;;
84301;SDS011;74468;52.218;6.896;2023-12-22T04:24:51;2.30;;;0.85;;
84301;SDS011;74468;52.218;6.896;2023-12-22T04:27:17;2.47;;;0.90;;
84301;SDS011;74468;52.218;6.896;2023-12-22T04:29:42;1.90;;;1.20;;
84301;SDS011;74468;52.218;6.896;2023-12-22T04:32:07;3.88;;;1.20;;
84301;SDS011;74468;52.218;6.896;2023-12-22T04:34:33;1.58;;;0.82;;
84301;SDS011;74468;52.218;6.896;2023-12-22T04:36:58;2.75;;;0.88;;
84301;SDS011;74468;52.218;6.896;2023-12-22T04:39:23;2.10;;;0.70;;
84301;SDS011;74468;52.218;6.896;2023-12-22T04:41:49;2.15;;;0.93;;
84301;SDS011;74468;52.218;6.896;2023-12-22T04:44:14;2.97;;;1.05;;
84301;SDS011;74468;52.218;6.896;2023-12-22T04:46:40;2.10;;;1.00;;
84301;SDS011;74468;52.218;6.896;2023-12-22T04:49:05;2.28;;;1.15;;
84301;SDS011;74468;52.218;6.896;2023-12-22T04:51:30;2.63;;;1.02;;
84301;SDS011;74468;52.218;6.896;2023-12-22T04:53:56;1.83;;;0.85;;
84301;SDS011;74468;52.218;6.896;2023-12-22T04:56:21;3.70;;;1.10;;
84301;SDS011;74468;52.218;6.896;2023-12-22T04:58:46;2.20;;;0.70;;
84301;SDS011;74468;52.218;6.896;2023-12-22T05:01:12;2.72;;;0.90;;
84301;SDS011;74468;52.218;6.896;2023-12-22T05:03:37;2.75;;;0.90;;
84301;SDS011;74468;52.218;6.896;2023-12-22T05:06:03;1.73;;;0.70;;
84301;SDS011;74468;52.218;6.896;2023-12-22T05:08:29;1.85;;;0.90;;
84301;SDS011;74468;52.218;6.896;2023-12-22T05:10:54;1.98;;;1.00;;
84301;SDS011;74468;52.218;6.896;2023-12-22T05:13:19;2.53;;;1.00;;
84301;SDS011;74468;52.218;6.896;2023-12-22T05:15:45;2.15;;;0.88;;
84301;SDS011;74468;52.218;6.896;2023-12-22T05:18:10;1.27;;;0.85;;
84301;SDS011;74468;52.218;6.896;2023-12-22T05:20:36;2.08;;;0.90;;
84301;SDS011;74468;52.218;6.896;2023-12-22T05:23:01;2.35;;;1.02;;
84301;SDS011;74468;52.218;6.896;2023-12-22T05:25:27;2.47;;;0.90;;
84301;SDS011;74468;52.218;6.896;2023-12-22T05:27:52;2.63;;;1.38;;
84301;SDS011;74468;52.218;6.896;2023-12-22T05:30:17;2.92;;;1.60;;
84301;SDS011;74468;52.218;6.896;2023-12-22T05:32:43;1.73;;;1.10;;
84301;SDS011;74468;52.218;6.896;2023-12-22T05:35:09;3.70;;;1.10;;
84301;SDS011;74468;52.218;6.896;2023-12-22T05:37:35;1.48;;;0.73;;
84301;SDS011;74468;52.218;6.896;2023-12-22T05:40:00;3.33;;;1.27;;
84301;SDS011;74468;52.218;6.896;2023-12-22T05:42:26;2.42;;;0.98;;
84301;SDS011;74468;52.218;6.896;2023-12-22T05:44:51;3.38;;;0.80;;
84301;SDS011;74468;52.218;6.896;2023-12-22T05:47:17;2.40;;;1.00;;
84301;SDS011;74468;52.218;6.896;2023-12-22T05:49:42;2.75;;;1.20;;
84301;SDS011;74468;52.218;6.896;2023-12-22T05:52:08;3.58;;;1.38;;
84301;SDS011;74468;52.218;6.896;2023-12-22T05:54:34;3.60;;;1.23;;
84301;SDS011;74468;52.218;6.896;2023-12-22T05:57:00;5.60;;;1.50;;
84301;SDS011;74468;52.218;6.896;2023-12-22T05:59:25;4.68;;;1.83;;
84301;SDS011;74468;52.218;6.896;2023-12-22T06:01:53;6.55;;;2.45;;
84301;SDS011;74468;52.218;6.896;2023-12-22T06:04:18;5.70;;;1.92;;
84301;SDS011;74468;52.218;6.896;2023-12-22T06:06:44;5.05;;;1.80;;
84301;SDS011;74468;52.218;6.896;2023-12-22T06:09:09;6.10;;;2.13;;
84301;SDS011;74468;52.218;6.896;2023-12-22T06:11:37;8.25;;;2.55;;
84301;SDS011;74468;52.218;6.896;2023-12-22T06:14:02;6.03;;;2.22;;
84301;SDS011;74468;52.218;6.896;2023-12-22T06:16:28;7.65;;;2.22;;
84301;SDS011;74468;52.218;6.896;2023-12-22T06:18:53;7.47;;;2.50;;
84301;SDS011;74468;52.218;6.896;2023-12-22T06:21:19;6.75;;;2.60;;
84301;SDS011;74468;52.218;6.896;2023-12-22T06:23:44;9.27;;;3.22;;
84301;SDS011;74468;52.218;6.896;2023-12-22T06:26:10;8.38;;;3.10;;
84301;SDS011;74468;52.218;6.896;2023-12-22T06:28:36;8.15;;;3.10;;
84301;SDS011;74468;52.218;6.896;2023-12-22T06:31:03;8.05;;;2.85;;
84301;SDS011;74468;52.218;6.896;2023-12-22T06:33:28;8.23;;;3.22;;
84301;SDS011;74468;52.218;6.896;2023-12-22T06:35:54;9.25;;;3.13;;
84301;SDS011;74468;52.218;6.896;2023-12-22T06:38:19;8.45;;;3.63;;
84301;SDS011;74468;52.218;6.896;2023-12-22T06:40:45;8.18;;;3.40;;
84301;SDS011;74468;52.218;6.896;2023-12-22T06:43:12;12.07;;;3.97;;
84301;SDS011;74468;52.218;6.896;2023-12-22T06:45:37;19.05;;;6.50;;
84301;SDS011;74468;52.218;6.896;2023-12-22T06:48:05;39.88;;;13.90;;
84301;SDS011;74468;52.218;6.896;2023-12-22T06:50:31;35.78;;;12.25;;
84301;SDS011;74468;52.218;6.896;2023-12-22T06:52:56;38.42;;;12.18;;
84301;SDS011;74468;52.218;6.896;2023-12-22T06:55:21;35.97;;;12.50;;
84301;SDS011;74468;52.218;6.896;2023-12-22T06:57:47;30.42;;;11.18;;
84301;SDS011;74468;52.218;6.896;2023-12-22T07:00:12;33.40;;;11.52;;
84301;SDS011;74468;52.218;6.896;2023-12-22T07:02:38;27.48;;;9.25;;
84301;SDS011;74468;52.218;6.896;2023-12-22T07:07:35;22.38;;;8.23;;
84301;SDS011;74468;52.218;6.896;2023-12-22T07:10:01;20.13;;;7.82;;
84301;SDS011;74468;52.218;6.896;2023-12-22T07:12:26;22.42;;;7.90;;
84301;SDS011;74468;52.218;6.896;2023-12-22T07:14:52;23.55;;;6.78;;
84301;SDS011;74468;52.218;6.896;2023-12-22T07:17:18;17.02;;;6.25;;
84301;SDS011;74468;52.218;6.896;2023-12-22T07:19:43;16.58;;;6.22;;
84301;SDS011;74468;52.218;6.896;2023-12-22T07:22:08;18.45;;;6.90;;
84301;SDS011;74468;52.218;6.896;2023-12-22T07:24:34;16.42;;;5.80;;
84301;SDS011;74468;52.218;6.896;2023-12-22T07:26:59;15.93;;;5.32;;
84301;SDS011;74468;52.218;6.896;2023-12-22T07:29:25;15.02;;;5.32;;
84301;SDS011;74468;52.218;6.896;2023-12-22T07:31:50;16.63;;;6.32;;
84301;SDS011;74468;52.218;6.896;2023-12-22T07:34:16;15.52;;;5.75;;
84301;SDS011;74468;52.218;6.896;2023-12-22T07:36:42;14.73;;;5.53;;
84301;SDS011;74468;52.218;6.896;2023-12-22T07:39:07;14.75;;;4.90;;
84301;SDS011;74468;52.218;6.896;2023-12-22T07:41:34;13.15;;;5.30;;
84301;SDS011;74468;52.218;6.896;2023-12-22T07:44:00;12.95;;;4.63;;
84301;SDS011;74468;52.218;6.896;2023-12-22T07:46:26;13.68;;;6.10;;
84301;SDS011;74468;52.218;6.896;2023-12-22T07:48:53;12.18;;;4.65;;
84301;SDS011;74468;52.218;6.896;2023-12-22T07:51:19;14.80;;;5.03;;
84301;SDS011;74468;52.218;6.896;2023-12-22T07:53:44;10.57;;;4.60;;
84301;SDS011;74468;52.218;6.896;2023-12-22T07:56:09;15.15;;;5.57;;
84301;SDS011;74468;52.218;6.896;2023-12-22T07:58:35;15.10;;;4.85;;
84301;SDS011;74468;52.218;6.896;2023-12-22T08:01:01;10.57;;;4.20;;
84301;SDS011;74468;52.218;6.896;2023-12-22T08:03:27;11.23;;;3.85;;
84301;SDS011;74468;52.218;6.896;2023-12-22T08:05:53;12.65;;;4.57;;
84301;SDS011;74468;52.218;6.896;2023-12-22T08:08:19;12.15;;;4.00;;
84301;SDS011;74468;52.218;6.896;2023-12-22T08:10:44;7.72;;;3.65;;
84301;SDS011;74468;52.218;6.896;2023-12-22T08:13:09;12.40;;;4.13;;
84301;SDS011;74468;52.218;6.896;2023-12-22T08:15:35;18.25;;;4.53;;
84301;SDS011;74468;52.218;6.896;2023-12-22T08:18:00;7.93;;;3.33;;
84301;SDS011;74468;52.218;6.896;2023-12-22T08:20:25;11.43;;;3.95;;
84301;SDS011;74468;52.218;6.896;2023-12-22T08:22:51;9.23;;;3.92;;
84301;SDS011;74468;52.218;6.896;2023-12-22T08:25:16;10.45;;;3.20;;
84301;SDS011;74468;52.218;6.896;2023-12-22T08:27:45;9.32;;;3.55;;
84301;SDS011;74468;52.218;6.896;2023-12-22T08:30:11;8.05;;;3.83;;
84301;SDS011;74468;52.218;6.896;2023-12-22T08:32:36;9.68;;;3.60;;
84301;SDS011;74468;52.218;6.896;2023-12-22T08:35:02;10.45;;;3.65;;
84301;SDS011;74468;52.218;6.896;2023-12-22T08:37:29;7.57;;;3.28;;
84301;SDS011;74468;52.218;6.896;2023-12-22T08:39:54;10.15;;;3.65;;
84301;SDS011;74468;52.218;6.896;2023-12-22T08:42:20;12.57;;;4.25;;
84301;SDS011;74468;52.218;6.896;2023-12-22T08:44:47;7.47;;;3.45;;
84301;SDS011;74468;52.218;6.896;2023-12-22T08:47:12;7.88;;;3.50;;
84301;SDS011;74468;52.218;6.896;2023-12-22T08:49:38;9.35;;;3.78;;
84301;SDS011;74468;52.218;6.896;2023-12-22T08:52:03;9.27;;;3.50;;
84301;SDS011;74468;52.218;6.896;2023-12-22T08:54:29;6.97;;;2.75;;
84301;SDS011;74468;52.218;6.896;2023-12-22T08:56:55;7.30;;;3.10;;
84301;SDS011;74468;52.218;6.896;2023-12-22T08:59:20;6.60;;;2.63;;
84301;SDS011;74468;52.218;6.896;2023-12-22T09:01:46;9.07;;;3.20;;
84301;SDS011;74468;52.218;6.896;2023-12-22T09:04:11;8.48;;;3.50;;
84301;SDS011;74468;52.218;6.896;2023-12-22T09:06:36;6.50;;;3.00;;
84301;SDS011;74468;52.218;6.896;2023-12-22T09:09:02;12.00;;;3.05;;
84301;SDS011;74468;52.218;6.896;2023-12-22T09:11:28;8.98;;;3.15;;
84301;SDS011;74468;52.218;6.896;2023-12-22T09:13:54;11.43;;;3.47;;
84301;SDS011;74468;52.218;6.896;2023-12-22T09:16:22;8.25;;;3.00;;
84301;SDS011;74468;52.218;6.896;2023-12-22T09:18:49;6.95;;;2.67;;
84301;SDS011;74468;52.218;6.896;2023-12-22T09:21:15;8.60;;;3.40;;
84301;SDS011;74468;52.218;6.896;2023-12-22T09:23:43;6.15;;;2.42;;
84301;SDS011;74468;52.218;6.896;2023-12-22T09:26:11;5.15;;;2.53;;
84301;SDS011;74468;52.218;6.896;2023-12-22T09:28:37;8.05;;;2.75;;
84301;SDS011;74468;52.218;6.896;2023-12-22T09:31:02;6.95;;;3.05;;
84301;SDS011;74468;52.218;6.896;2023-12-22T09:33:30;6.63;;;2.40;;
84301;SDS011;74468;52.218;6.896;2023-12-22T09:35:56;6.97;;;2.80;;
84301;SDS011;74468;52.218;6.896;2023-12-22T09:38:21;6.93;;;2.22;;
84301;SDS011;74468;52.218;6.896;2023-12-22T09:40:48;7.80;;;2.45;;
84301;SDS011;74468;52.218;6.896;2023-12-22T09:43:17;5.70;;;2.63;;
84301;SDS011;74468;52.218;6.896;2023-12-22T09:45:45;5.30;;;2.10;;
84301;SDS011;74468;52.218;6.896;2023-12-22T09:48:11;8.60;;;2.60;;
84301;SDS011;74468;52.218;6.896;2023-12-22T09:50:42;5.82;;;2.78;;
84301;SDS011;74468;52.218;6.896;2023-12-22T09:53:08;8.43;;;2.30;;
84301;SDS011;74468;52.218;6.896;2023-12-22T09:55:34;4.90;;;2.15;;
84301;SDS011;74468;52.218;6.896;2023-12-22T09:58:00;6.82;;;2.75;;
84301;SDS011;74468;52.218;6.896;2023-12-22T10:00:26;6.72;;;2.63;;
84301;SDS011;74468;52.218;6.896;2023-12-22T10:02:53;7.35;;;2.92;;
84301;SDS011;74468;52.218;6.896;2023-12-22T10:05:18;3.88;;;2.20;;
84301;SDS011;74468;52.218;6.896;2023-12-22T10:07:44;8.60;;;2.65;;
84301;SDS011;74468;52.218;6.896;2023-12-22T10:10:09;4.15;;;1.73;;
84301;SDS011;74468;52.218;6.896;2023-12-22T10:12:35;4.53;;;2.47;;
84301;SDS011;74468;52.218;6.896;2023-12-22T10:15:01;6.78;;;2.45;;
84301;SDS011;74468;52.218;6.896;2023-12-22T10:17:28;7.05;;;2.28;;
84301;SDS011;74468;52.218;6.896;2023-12-22T10:19:54;7.75;;;2.33;;
84301;SDS011;74468;52.218;6.896;2023-12-22T10:22:19;4.65;;;1.92;;
84301;SDS011;74468;52.218;6.896;2023-12-22T10:24:48;6.43;;;2.30;;
84301;SDS011;74468;52.218;6.896;2023-12-22T10:27:15;7.38;;;2.95;;
84301;SDS011;74468;52.218;6.896;2023-12-22T10:29:47;6.68;;;2.20;;
84301;SDS011;74468;52.218;6.896;2023-12-22T10:32:19;5.35;;;2.15;;
84301;SDS011;74468;52.218;6.896;2023-12-22T10:34:46;6.25;;;2.47;;
84301;SDS011;74468;52.218;6.896;2023-12-22T10:37:11;3.88;;;2.13;;
84301;SDS011;74468;52.218;6.896;2023-12-22T10:39:40;5.88;;;2.13;;
84301;SDS011;74468;52.218;6.896;2023-12-22T10:42:06;5.07;;;1.75;;
84301;SDS011;74468;52.218;6.896;2023-12-22T10:44:32;2.83;;;1.80;;
84301;SDS011;74468;52.218;6.896;2023-12-22T10:46:57;7.45;;;2.35;;
84301;SDS011;74468;52.218;6.896;2023-12-22T10:49:23;5.43;;;2.20;;
84301;SDS011;74468;52.218;6.896;2023-12-22T10:51:49;5.47;;;2.25;;
84301;SDS011;74468;52.218;6.896;2023-12-22T10:54:15;5.95;;;2.35;;
84301;SDS011;74468;52.218;6.896;2023-12-22T10:56:41;7.38;;;2.30;;
84301;SDS011;74468;52.218;6.896;2023-12-22T10:59:07;5.22;;;2.63;;
84301;SDS011;74468;52.218;6.896;2023-12-22T11:01:33;4.65;;;2.00;;
84301;SDS011;74468;52.218;6.896;2023-12-22T11:04:07;3.95;;;1.63;;
84301;SDS011;74468;52.218;6.896;2023-12-22T11:06:36;6.63;;;2.40;;
84301;SDS011;74468;52.218;6.896;2023-12-22T11:09:09;6.60;;;2.13;;
84301;SDS011;74468;52.218;6.896;2023-12-22T11:11:35;4.70;;;1.65;;
84301;SDS011;74468;52.218;6.896;2023-12-22T11:14:02;5.57;;;2.28;;
84301;SDS011;74468;52.218;6.896;2023-12-22T11:16:29;6.20;;;2.38;;
84301;SDS011;74468;52.218;6.896;2023-12-22T11:18:55;4.45;;;1.70;;
84301;SDS011;74468;52.218;6.896;2023-12-22T11:21:24;5.50;;;1.85;;
84301;SDS011;74468;52.218;6.896;2023-12-22T11:23:50;4.13;;;2.15;;
84301;SDS011;74468;52.218;6.896;2023-12-22T11:26:17;2.70;;;1.30;;
84301;SDS011;74468;52.218;6.896;2023-12-22T11:28:44;4.30;;;2.38;;
84301;SDS011;74468;52.218;6.896;2023-12-22T11:31:10;4.28;;;1.60;;
84301;SDS011;74468;52.218;6.896;2023-12-22T11:33:37;4.20;;;1.88;;
84301;SDS011;74468;52.218;6.896;2023-12-22T11:36:05;3.97;;;1.52;;
84301;SDS011;74468;52.218;6.896;2023-12-22T11:38:31;4.38;;;1.67;;
84301;SDS011;74468;52.218;6.896;2023-12-22T11:40:56;4.70;;;1.50;;
84301;SDS011;74468;52.218;6.896;2023-12-22T11:43:23;4.25;;;1.55;;
84301;SDS011;74468;52.218;6.896;2023-12-22T11:45:49;4.53;;;1.55;;
84301;SDS011;74468;52.218;6.896;2023-12-22T11:48:15;3.20;;;1.52;;
84301;SDS011;74468;52.218;6.896;2023-12-22T11:50:41;5.32;;;2.25;;
84301;SDS011;74468;52.218;6.896;2023-12-22T11:53:25;5.13;;;1.60;;
84301;SDS011;74468;52.218;6.896;2023-12-22T11:56:04;2.55;;;1.63;;
84301;SDS011;74468;52.218;6.896;2023-12-22T11:58:39;5.38;;;1.65;;
84301;SDS011;74468;52.218;6.896;2023-12-22T12:01:13;3.38;;;1.63;;
84301;SDS011;74468;52.218;6.896;2023-12-22T12:03:42;3.00;;;1.40;;
84301;SDS011;74468;52.218;6.896;2023-12-22T12:08:39;5.15;;;1.70;;
84301;SDS011;74468;52.218;6.896;2023-12-22T12:11:05;3.88;;;1.38;;
84301;SDS011;74468;52.218;6.896;2023-12-22T12:13:31;4.93;;;1.40;;
84301;SDS011;74468;52.218;6.896;2023-12-22T12:15:58;4.50;;;1.42;;
84301;SDS011;74468;52.218;6.896;2023-12-22T12:18:29;3.05;;;1.52;;
84301;SDS011;74468;52.218;6.896;2023-12-22T12:20:55;3.33;;;1.10;;
84301;SDS011;74468;52.218;6.896;2023-12-22T12:23:23;5.43;;;1.95;;
84301;SDS011;74468;52.218;6.896;2023-12-22T12:25:49;2.30;;;1.27;;
84301;SDS011;74468;52.218;6.896;2023-12-22T12:28:14;2.60;;;1.52;;
84301;SDS011;74468;52.218;6.896;2023-12-22T12:30:43;2.05;;;1.10;;
84301;SDS011;74468;52.218;6.896;2023-12-22T12:33:09;2.15;;;1.00;;
84301;SDS011;74468;52.218;6.896;2023-12-22T12:35:36;3.38;;;1.25;;
84301;SDS011;74468;52.218;6.896;2023-12-22T12:38:02;1.55;;;1.10;;
84301;SDS011;74468;52.218;6.896;2023-12-22T12:40:28;4.57;;;1.58;;
84301;SDS011;74468;52.218;6.896;2023-12-22T12:42:59;3.15;;;1.30;;
84301;SDS011;74468;52.218;6.896;2023-12-22T12:45:25;2.65;;;1.23;;
84301;SDS011;74468;52.218;6.896;2023-12-22T12:47:55;6.00;;;1.98;;
84301;SDS011;74468;52.218;6.896;2023-12-22T12:50:23;4.47;;;1.50;;
84301;SDS011;74468;52.218;6.896;2023-12-22T12:52:49;1.65;;;1.48;;
84301;SDS011;74468;52.218;6.896;2023-12-22T12:55:22;1.90;;;1.13;;
84301;SDS011;74468;52.218;6.896;2023-12-22T12:57:49;3.45;;;1.65;;
84301;SDS011;74468;52.218;6.896;2023-12-22T13:00:16;4.90;;;1.70;;
84301;SDS011;74468;52.218;6.896;2023-12-22T13:02:46;2.72;;;1.20;;
84301;SDS011;74468;52.218;6.896;2023-12-22T13:05:19;2.95;;;1.10;;
84301;SDS011;74468;52.218;6.896;2023-12-22T13:07:46;3.88;;;1.45;;
84301;SDS011;74468;52.218;6.896;2023-12-22T13:10:24;5.60;;;1.17;;
84301;SDS011;74468;52.218;6.896;2023-12-22T13:12:51;2.85;;;1.25;;
84301;SDS011;74468;52.218;6.896;2023-12-22T13:15:19;4.30;;;1.30;;
84301;SDS011;74468;52.218;6.896;2023-12-22T13:17:45;2.72;;;1.13;;
84301;SDS011;74468;52.218;6.896;2023-12-22T13:20:11;3.95;;;1.80;;
84301;SDS011;74468;52.218;6.896;2023-12-22T13:22:37;4.03;;;1.20;;
84301;SDS011;74468;52.218;6.896;2023-12-22T13:25:02;5.28;;;1.67;;
84301;SDS011;74468;52.218;6.896;2023-12-22T13:27:28;4.05;;;1.38;;
84301;SDS011;74468;52.218;6.896;2023-12-22T13:29:54;4.63;;;1.40;;
84301;SDS011;74468;52.218;6.896;2023-12-22T13:32:20;2.10;;;0.93;;
84301;SDS011;74468;52.218;6.896;2023-12-22T13:34:52;3.72;;;1.40;;
84301;SDS011;74468;52.218;6.896;2023-12-22T13:37:18;3.92;;;1.30;;
84301;SDS011;74468;52.218;6.896;2023-12-22T13:39:45;3.17;;;1.27;;
84301;SDS011;74468;52.218;6.896;2023-12-22T13:42:14;3.53;;;1.10;;
84301;SDS011;74468;52.218;6.896;2023-12-22T13:44:42;4.50;;;1.20;;
84301;SDS011;74468;52.218;6.896;2023-12-22T13:47:08;2.85;;;1.13;;
84301;SDS011;74468;52.218;6.896;2023-12-22T13:49:34;3.40;;;1.08;;
84301;SDS011;74468;52.218;6.896;2023-12-22T13:51:59;3.42;;;1.20;;
84301;SDS011;74468;52.218;6.896;2023-12-22T13:54:31;3.88;;;1.23;;
84301;SDS011;74468;52.218;6.896;2023-12-22T13:56:57;3.47;;;1.13;;
84301;SDS011;74468;52.218;6.896;2023-12-22T13:59:32;5.40;;;1.30;;
84301;SDS011;74468;52.218;6.896;2023-12-22T14:01:58;3.92;;;0.90;;
84301;SDS011;74468;52.218;6.896;2023-12-22T14:04:23;2.58;;;1.10;;
84301;SDS011;74468;52.218;6.896;2023-12-22T14:06:50;2.10;;;1.00;;
84301;SDS011;74468;52.218;6.896;2023-12-22T14:09:15;2.13;;;0.98;;
84301;SDS011;74468;52.218;6.896;2023-12-22T14:11:44;3.00;;;1.08;;
84301;SDS011;74468;52.218;6.896;2023-12-22T14:14:09;4.97;;;1.20;;
84301;SDS011;74468;52.218;6.896;2023-12-22T14:16:37;5.32;;;1.63;;
84301;SDS011;74468;52.218;6.896;2023-12-22T14:19:02;2.50;;;1.00;;
84301;SDS011;74468;52.218;6.896;2023-12-22T14:21:28;3.60;;;1.40;;
84301;SDS011;74468;52.218;6.896;2023-12-22T14:23:53;1.90;;;0.98;;
84301;SDS011;74468;52.218;6.896;2023-12-22T14:26:19;2.45;;;1.20;;
84301;SDS011;74468;52.218;6.896;2023-12-22T14:28:44;1.80;;;0.77;;
84301;SDS011;74468;52.218;6.896;2023-12-22T14:31:12;2.72;;;1.45;;
84301;SDS011;74468;52.218;6.896;2023-12-22T14:33:37;3.13;;;1.83;;
84301;SDS011;74468;52.218;6.896;2023-12-22T14:36:03;4.13;;;1.33;;
84301;SDS011;74468;52.218;6.896;2023-12-22T14:38:28;2.13;;;1.02;;
84301;SDS011;74468;52.218;6.896;2023-12-22T14:40:54;5.25;;;1.67;;
84301;SDS011;74468;52.218;6.896;2023-12-22T14:43:19;4.63;;;1.27;;
84301;SDS011;74468;52.218;6.896;2023-12-22T14:45:45;6.00;;;2.05;;